sensor_id;sensor_type;location;lat;lon;timestamp;pressure;altitude;pressure_sealevel;temperature;humidity
57412;BME280;43247;52.828;-8.980;2023-11-18T00:00:23;100281.52;;;8.94;100.00
57412;BME280;43247;52.828;-8.980;2023-11-18T00:01:23;100285.04;;;8.95;100.00
57412;BME280;43247;52.828;-8.980;2023-11-18T00:02:23;100285.02;;;8.96;100.00
57412;BME280;43247;52.828;-8.980;2023-11-18T00:03:23;100287.05;;;8.98;100.00
57412;BME280;43247;52.828;-8.980;2023-11-18T00:04:23;100286.18;;;8.98;100.00
57412;BME280;43247;52.828;-8.980;2023-11-18T00:05:24;100285.33;;;8.98;100.00
57412;BME280;43247;52.828;-8.980;2023-11-18T00:06:24;100283.52;;;8.98;100.00
57412;BME280;43247;52.828;-8.980;2023-11-18T00:07:24;100280.54;;;8.97;100.00
57412;BME280;43247;52.828;-8.980;2023-11-18T00:08:24;100276.58;;;8.98;100.00
57412;BME280;43247;52.828;-8.980;2023-11-18T00:09:24;100278.34;;;8.98;100.00
57412;BME280;43247;52.828;-8.980;2023-11-18T00:10:24;100272.72;;;8.97;100.00
57412;BME280;43247;52.828;-8.980;2023-11-18T00:11:25;100275.94;;;8.98;100.00
57412;BME280;43247;52.828;-8.980;2023-11-18T00:12:25;100277.22;;;8.98;100.00
57412;BME280;43247;52.828;-8.980;2023-11-18T00:13:25;100277.81;;;8.99;100.00
57412;BME280;43247;52.828;-8.980;2023-11-18T00:14:26;100281.21;;;9.00;100.00
57412;BME280;43247;52.828;-8.980;2023-11-18T00:15:26;100278.78;;;9.00;100.00
57412;BME280;43247;52.828;-8.980;2023-11-18T00:16:26;100277.21;;;9.00;100.00
57412;BME280;43247;52.828;-8.980;2023-11-18T00:17:26;100280.40;;;9.00;100.00
57412;BME280;43247;52.828;-8.980;2023-11-18T00:18:26;100279.32;;;9.01;100.00
57412;BME280;43247;52.828;-8.980;2023-11-18T00:19:26;100276.45;;;9.01;100.00
57412;BME280;43247;52.828;-8.980;2023-11-18T00:20:27;100275.86;;;9.02;100.00
57412;BME280;43247;52.828;-8.980;2023-11-18T00:21:27;100278.99;;;9.02;100.00
57412;BME280;43247;52.828;-8.980;2023-11-18T00:22:27;100280.75;;;9.04;100.00
57412;BME280;43247;52.828;-8.980;2023-11-18T00:23:27;100278.38;;;9.04;100.00
57412;BME280;43247;52.828;-8.980;2023-11-18T00:24:27;100278.63;;;9.04;100.00
57412;BME280;43247;52.828;-8.980;2023-11-18T00:25:28;100281.10;;;9.04;100.00
57412;BME280;43247;52.828;-8.980;2023-11-18T00:26:28;100280.34;;;9.05;100.00
57412;BME280;43247;52.828;-8.980;2023-11-18T00:27:28;100278.09;;;9.04;100.00
57412;BME280;43247;52.828;-8.980;2023-11-18T00:28:29;100277.74;;;9.06;100.00
57412;BME280;43247;52.828;-8.980;2023-11-18T00:29:29;100273.91;;;9.06;100.00
57412;BME280;43247;52.828;-8.980;2023-11-18T00:30:29;100272.18;;;9.06;100.00
57412;BME280;43247;52.828;-8.980;2023-11-18T00:31:29;100268.06;;;9.07;100.00
57412;BME280;43247;52.828;-8.980;2023-11-18T00:32:29;100269.69;;;9.08;100.00
57412;BME280;43247;52.828;-8.980;2023-11-18T00:33:29;100271.08;;;9.09;100.00
57412;BME280;43247;52.828;-8.980;2023-11-18T00:34:30;100271.53;;;9.09;100.00
57412;BME280;43247;52.828;-8.980;2023-11-18T00:35:30;100270.07;;;9.09;100.00
57412;BME280;43247;52.828;-8.980;2023-11-18T00:36:30;100268.35;;;9.10;100.00
57412;BME280;43247;52.828;-8.980;2023-11-18T00:37:30;100266.12;;;9.11;100.00
57412;BME280;43247;52.828;-8.980;2023-11-18T00:38:30;100266.96;;;9.11;100.00
57412;BME280;43247;52.828;-8.980;2023-11-18T00:39:30;100267.42;;;9.12;100.00
57412;BME280;43247;52.828;-8.980;2023-11-18T00:40:31;100266.32;;;9.12;100.00
57412;BME280;43247;52.828;-8.980;2023-11-18T00:41:31;100268.78;;;9.13;100.00
57412;BME280;43247;52.828;-8.980;2023-11-18T00:42:31;100268.18;;;9.15;100.00
57412;BME280;43247;52.828;-8.980;2023-11-18T00:43:31;100269.38;;;9.14;100.00
57412;BME280;43247;52.828;-8.980;2023-11-18T00:44:31;100268.40;;;9.15;100.00
57412;BME280;43247;52.828;-8.980;2023-11-18T00:45:31;100267.38;;;9.15;100.00
57412;BME280;43247;52.828;-8.980;2023-11-18T00:46:32;100264.80;;;9.16;100.00
57412;BME280;43247;52.828;-8.980;2023-11-18T00:47:32;100263.96;;;9.16;100.00
57412;BME280;43247;52.828;-8.980;2023-11-18T00:48:32;100261.98;;;9.17;100.00
57412;BME280;43247;52.828;-8.980;2023-11-18T00:49:32;100260.29;;;9.18;100.00
57412;BME280;43247;52.828;-8.980;2023-11-18T00:50:32;100262.38;;;9.18;100.00
57412;BME280;43247;52.828;-8.980;2023-11-18T00:51:32;100263.65;;;9.19;100.00
57412;BME280;43247;52.828;-8.980;2023-11-18T00:52:33;100263.19;;;9.19;100.00
57412;BME280;43247;52.828;-8.980;2023-11-18T00:53:33;100263.17;;;9.19;100.00
57412;BME280;43247;52.828;-8.980;2023-11-18T00:54:34;100260.99;;;9.20;100.00
57412;BME280;43247;52.828;-8.980;2023-11-18T00:55:34;100260.22;;;9.21;100.00
57412;BME280;43247;52.828;-8.980;2023-11-18T00:56:34;100258.67;;;9.21;100.00
57412;BME280;43247;52.828;-8.980;2023-11-18T00:57:34;100259.24;;;9.22;100.00
57412;BME280;43247;52.828;-8.980;2023-11-18T00:58:34;100259.55;;;9.23;100.00
57412;BME280;43247;52.828;-8.980;2023-11-18T00:59:34;100255.67;;;9.23;100.00
57412;BME280;43247;52.828;-8.980;2023-11-18T01:00:35;100253.89;;;9.24;100.00
57412;BME280;43247;52.828;-8.980;2023-11-18T01:01:35;100250.29;;;9.25;100.00
57412;BME280;43247;52.828;-8.980;2023-11-18T01:02:35;100248.47;;;9.25;100.00
57412;BME280;43247;52.828;-8.980;2023-11-18T01:03:35;100247.29;;;9.26;100.00
57412;BME280;43247;52.828;-8.980;2023-11-18T01:04:35;100241.18;;;9.26;100.00
57412;BME280;43247;52.828;-8.980;2023-11-18T01:05:35;100245.19;;;9.27;100.00
57412;BME280;43247;52.828;-8.980;2023-11-18T01:06:35;100242.33;;;9.27;100.00
57412;BME280;43247;52.828;-8.980;2023-11-18T01:07:36;100240.52;;;9.28;100.00
57412;BME280;43247;52.828;-8.980;2023-11-18T01:08:36;100240.73;;;9.29;100.00
57412;BME280;43247;52.828;-8.980;2023-11-18T01:09:36;100240.83;;;9.30;100.00
57412;BME280;43247;52.828;-8.980;2023-11-18T01:10:37;100237.10;;;9.31;100.00
57412;BME280;43247;52.828;-8.980;2023-11-18T01:11:36;100235.69;;;9.32;100.00
57412;BME280;43247;52.828;-8.980;2023-11-18T01:12:36;100236.71;;;9.33;100.00
57412;BME280;43247;52.828;-8.980;2023-11-18T01:13:37;100233.48;;;9.33;100.00
57412;BME280;43247;52.828;-8.980;2023-11-18T01:14:37;100236.54;;;9.34;100.00
57412;BME280;43247;52.828;-8.980;2023-11-18T01:15:37;100237.58;;;9.34;100.00
57412;BME280;43247;52.828;-8.980;2023-11-18T01:16:37;100240.40;;;9.35;100.00
57412;BME280;43247;52.828;-8.980;2023-11-18T01:17:38;100242.90;;;9.36;100.00
57412;BME280;43247;52.828;-8.980;2023-11-18T01:18:38;100241.57;;;9.37;100.00
57412;BME280;43247;52.828;-8.980;2023-11-18T01:19:37;100237.96;;;9.37;100.00
57412;BME280;43247;52.828;-8.980;2023-11-18T01:20:38;100235.73;;;9.38;100.00
57412;BME280;43247;52.828;-8.980;2023-11-18T01:21:38;100232.01;;;9.39;100.00
57412;BME280;43247;52.828;-8.980;2023-11-18T01:22:38;100233.12;;;9.39;100.00
57412;BME280;43247;52.828;-8.980;2023-11-18T01:23:39;100232.88;;;9.40;100.00
57412;BME280;43247;52.828;-8.980;2023-11-18T01:24:38;100234.00;;;9.41;100.00
57412;BME280;43247;52.828;-8.980;2023-11-18T01:25:38;100231.38;;;9.41;100.00
57412;BME280;43247;52.828;-8.980;2023-11-18T01:26:39;100228.21;;;9.42;100.00
57412;BME280;43247;52.828;-8.980;2023-11-18T01:27:39;100223.48;;;9.42;100.00
57412;BME280;43247;52.828;-8.980;2023-11-18T01:28:39;100223.25;;;9.43;100.00
57412;BME280;43247;52.828;-8.980;2023-11-18T01:29:39;100222.08;;;9.43;100.00
57412;BME280;43247;52.828;-8.980;2023-11-18T01:30:39;100222.98;;;9.45;100.00
57412;BME280;43247;52.828;-8.980;2023-11-18T01:31:39;100222.96;;;9.45;100.00
57412;BME280;43247;52.828;-8.980;2023-11-18T01:32:40;100220.34;;;9.46;100.00
57412;BME280;43247;52.828;-8.980;2023-11-18T01:33:40;100221.84;;;9.46;100.00
57412;BME280;43247;52.828;-8.980;2023-11-18T01:34:40;100225.92;;;9.48;100.00
57412;BME280;43247;52.828;-8.980;2023-11-18T01:35:40;100228.10;;;9.49;100.00
57412;BME280;43247;52.828;-8.980;2023-11-18T01:36:40;100230.28;;;9.50;100.00
57412;BME280;43247;52.828;-8.980;2023-11-18T01:37:41;100230.78;;;9.50;100.00
57412;BME280;43247;52.828;-8.980;2023-11-18T01:38:41;100233.65;;;9.52;100.00
57412;BME280;43247;52.828;-8.980;2023-11-18T01:39:41;100234.61;;;9.53;100.00
57412;BME280;43247;52.828;-8.980;2023-11-18T01:40:41;100238.21;;;9.54;100.00
57412;BME280;43247;52.828;-8.980;2023-11-18T01:41:41;100238.25;;;9.54;100.00
57412;BME280;43247;52.828;-8.980;2023-11-18T01:42:42;100235.27;;;9.57;100.00
57412;BME280;43247;52.828;-8.980;2023-11-18T01:43:43;100238.04;;;9.56;100.00
57412;BME280;43247;52.828;-8.980;2023-11-18T01:44:42;100238.20;;;9.57;100.00
57412;BME280;43247;52.828;-8.980;2023-11-18T01:45:42;100239.77;;;9.57;100.00
57412;BME280;43247;52.828;-8.980;2023-11-18T01:46:42;100238.26;;;9.59;100.00
57412;BME280;43247;52.828;-8.980;2023-11-18T01:47:43;100238.39;;;9.60;100.00
57412;BME280;43247;52.828;-8.980;2023-11-18T01:48:42;100237.35;;;9.61;100.00
57412;BME280;43247;52.828;-8.980;2023-11-18T01:49:43;100231.67;;;9.62;100.00
57412;BME280;43247;52.828;-8.980;2023-11-18T01:50:43;100228.61;;;9.62;100.00
57412;BME280;43247;52.828;-8.980;2023-11-18T01:51:44;100227.68;;;9.63;100.00
57412;BME280;43247;52.828;-8.980;2023-11-18T01:52:43;100226.39;;;9.64;100.00
57412;BME280;43247;52.828;-8.980;2023-11-18T01:53:44;100223.75;;;9.64;100.00
57412;BME280;43247;52.828;-8.980;2023-11-18T01:54:43;100225.90;;;9.65;100.00
57412;BME280;43247;52.828;-8.980;2023-11-18T01:55:43;100228.17;;;9.66;100.00
57412;BME280;43247;52.828;-8.980;2023-11-18T01:56:47;100227.98;;;9.67;100.00
57412;BME280;43247;52.828;-8.980;2023-11-18T01:57:44;100227.08;;;9.66;100.00
57412;BME280;43247;52.828;-8.980;2023-11-18T01:58:44;100226.16;;;9.68;100.00
57412;BME280;43247;52.828;-8.980;2023-11-18T01:59:44;100224.33;;;9.68;100.00
57412;BME280;43247;52.828;-8.980;2023-11-18T02:00:45;100214.91;;;9.69;100.00
57412;BME280;43247;52.828;-8.980;2023-11-18T02:01:47;100213.49;;;9.70;100.00
57412;BME280;43247;52.828;-8.980;2023-11-18T02:02:44;100211.87;;;9.71;100.00
57412;BME280;43247;52.828;-8.980;2023-11-18T02:03:44;100209.46;;;9.70;100.00
57412;BME280;43247;52.828;-8.980;2023-11-18T02:04:45;100202.83;;;9.72;100.00
57412;BME280;43247;52.828;-8.980;2023-11-18T02:05:45;100204.10;;;9.73;100.00
57412;BME280;43247;52.828;-8.980;2023-11-18T02:06:45;100200.30;;;9.73;100.00
57412;BME280;43247;52.828;-8.980;2023-11-18T02:07:45;100200.74;;;9.73;100.00
57412;BME280;43247;52.828;-8.980;2023-11-18T02:08:45;100200.99;;;9.75;100.00
57412;BME280;43247;52.828;-8.980;2023-11-18T02:09:45;100199.61;;;9.77;100.00
57412;BME280;43247;52.828;-8.980;2023-11-18T02:10:48;100196.08;;;9.77;100.00
57412;BME280;43247;52.828;-8.980;2023-11-18T02:11:52;100199.04;;;9.76;100.00
57412;BME280;43247;52.828;-8.980;2023-11-18T02:12:52;100200.11;;;9.75;100.00
57412;BME280;43247;52.828;-8.980;2023-11-18T02:13:48;100206.15;;;9.73;100.00
57412;BME280;43247;52.828;-8.980;2023-11-18T02:14:48;100205.29;;;9.74;100.00
57412;BME280;43247;52.828;-8.980;2023-11-18T02:15:48;100204.14;;;9.73;100.00
57412;BME280;43247;52.828;-8.980;2023-11-18T02:16:48;100204.95;;;9.71;100.00
57412;BME280;43247;52.828;-8.980;2023-11-18T02:17:48;100203.94;;;9.70;100.00
57412;BME280;43247;52.828;-8.980;2023-11-18T02:18:47;100199.80;;;9.71;100.00
57412;BME280;43247;52.828;-8.980;2023-11-18T02:19:47;100202.26;;;9.72;100.00
57412;BME280;43247;52.828;-8.980;2023-11-18T02:20:47;100204.61;;;9.71;100.00
57412;BME280;43247;52.828;-8.980;2023-11-18T02:21:48;100204.87;;;9.72;100.00
57412;BME280;43247;52.828;-8.980;2023-11-18T02:22:48;100203.37;;;9.73;100.00
57412;BME280;43247;52.828;-8.980;2023-11-18T02:23:48;100202.64;;;9.74;100.00
57412;BME280;43247;52.828;-8.980;2023-11-18T02:24:48;100199.27;;;9.74;100.00
57412;BME280;43247;52.828;-8.980;2023-11-18T02:25:48;100200.05;;;9.75;100.00
57412;BME280;43247;52.828;-8.980;2023-11-18T02:26:48;100198.27;;;9.78;100.00
57412;BME280;43247;52.828;-8.980;2023-11-18T02:27:48;100196.09;;;9.78;100.00
57412;BME280;43247;52.828;-8.980;2023-11-18T02:28:49;100195.12;;;9.78;100.00
57412;BME280;43247;52.828;-8.980;2023-11-18T02:29:49;100191.44;;;9.79;100.00
57412;BME280;43247;52.828;-8.980;2023-11-18T02:30:50;100191.90;;;9.79;100.00
57412;BME280;43247;52.828;-8.980;2023-11-18T02:31:53;100189.09;;;9.80;100.00
57412;BME280;43247;52.828;-8.980;2023-11-18T02:32:55;100187.20;;;9.80;100.00
57412;BME280;43247;52.828;-8.980;2023-11-18T02:33:56;100185.38;;;9.81;100.00
57412;BME280;43247;52.828;-8.980;2023-11-18T02:34:55;100188.28;;;9.81;100.00
57412;BME280;43247;52.828;-8.980;2023-11-18T02:35:53;100188.33;;;9.83;100.00
57412;BME280;43247;52.828;-8.980;2023-11-18T02:36:51;100183.11;;;9.86;100.00
57412;BME280;43247;52.828;-8.980;2023-11-18T02:37:53;100181.44;;;9.86;100.00
57412;BME280;43247;52.828;-8.980;2023-11-18T02:38:52;100171.63;;;9.86;100.00
57412;BME280;43247;52.828;-8.980;2023-11-18T02:39:54;100164.89;;;9.86;100.00
57412;BME280;43247;52.828;-8.980;2023-11-18T02:40:53;100162.40;;;9.87;100.00
57412;BME280;43247;52.828;-8.980;2023-11-18T02:41:52;100169.19;;;9.88;100.00
57412;BME280;43247;52.828;-8.980;2023-11-18T02:42:52;100156.92;;;9.88;100.00
57412;BME280;43247;52.828;-8.980;2023-11-18T02:43:52;100158.03;;;9.88;100.00
57412;BME280;43247;52.828;-8.980;2023-11-18T02:44:52;100156.44;;;9.88;100.00
57412;BME280;43247;52.828;-8.980;2023-11-18T02:45:52;100152.89;;;9.90;100.00
57412;BME280;43247;52.828;-8.980;2023-11-18T02:46:52;100148.42;;;9.91;100.00
57412;BME280;43247;52.828;-8.980;2023-11-18T02:47:53;100150.79;;;9.90;100.00
57412;BME280;43247;52.828;-8.980;2023-11-18T02:48:52;100147.27;;;9.90;100.00
57412;BME280;43247;52.828;-8.980;2023-11-18T02:49:54;100150.59;;;9.90;100.00
57412;BME280;43247;52.828;-8.980;2023-11-18T02:50:53;100150.01;;;9.91;100.00
57412;BME280;43247;52.828;-8.980;2023-11-18T02:51:53;100146.69;;;9.93;100.00
57412;BME280;43247;52.828;-8.980;2023-11-18T02:52:53;100146.01;;;9.92;100.00
57412;BME280;43247;52.828;-8.980;2023-11-18T02:53:53;100148.24;;;9.92;100.00
57412;BME280;43247;52.828;-8.980;2023-11-18T02:54:53;100147.88;;;9.93;100.00
57412;BME280;43247;52.828;-8.980;2023-11-18T02:55:53;100142.92;;;9.93;100.00
57412;BME280;43247;52.828;-8.980;2023-11-18T02:56:54;100139.08;;;9.94;100.00
57412;BME280;43247;52.828;-8.980;2023-11-18T02:57:54;100142.01;;;9.95;100.00
57412;BME280;43247;52.828;-8.980;2023-11-18T02:58:54;100137.87;;;9.94;100.00
57412;BME280;43247;52.828;-8.980;2023-11-18T02:59:54;100140.88;;;9.95;100.00
57412;BME280;43247;52.828;-8.980;2023-11-18T03:00:55;100140.08;;;9.95;100.00
57412;BME280;43247;52.828;-8.980;2023-11-18T03:01:54;100141.59;;;9.96;100.00
57412;BME280;43247;52.828;-8.980;2023-11-18T03:02:55;100140.68;;;9.97;100.00
57412;BME280;43247;52.828;-8.980;2023-11-18T03:03:55;100139.45;;;9.96;100.00
57412;BME280;43247;52.828;-8.980;2023-11-18T03:04:55;100139.28;;;9.96;100.00
57412;BME280;43247;52.828;-8.980;2023-11-18T03:05:55;100137.25;;;9.97;100.00
57412;BME280;43247;52.828;-8.980;2023-11-18T03:06:55;100138.42;;;9.96;100.00
57412;BME280;43247;52.828;-8.980;2023-11-18T03:07:55;100135.91;;;9.97;100.00
57412;BME280;43247;52.828;-8.980;2023-11-18T03:08:56;100133.03;;;9.97;100.00
57412;BME280;43247;52.828;-8.980;2023-11-18T03:09:56;100133.84;;;9.97;100.00
57412;BME280;43247;52.828;-8.980;2023-11-18T03:10:56;100133.82;;;9.98;100.00
57412;BME280;43247;52.828;-8.980;2023-11-18T03:11:57;100129.90;;;9.97;100.00
57412;BME280;43247;52.828;-8.980;2023-11-18T03:12:57;100128.13;;;9.98;100.00
57412;BME280;43247;52.828;-8.980;2023-11-18T03:13:57;100126.18;;;9.98;100.00
57412;BME280;43247;52.828;-8.980;2023-11-18T03:14:58;100124.00;;;10.00;100.00
57412;BME280;43247;52.828;-8.980;2023-11-18T03:15:58;100120.70;;;9.99;100.00
57412;BME280;43247;52.828;-8.980;2023-11-18T03:16:58;100113.60;;;9.99;100.00
57412;BME280;43247;52.828;-8.980;2023-11-18T03:17:58;100115.08;;;9.98;100.00
57412;BME280;43247;52.828;-8.980;2023-11-18T03:18:58;100112.27;;;9.99;100.00
57412;BME280;43247;52.828;-8.980;2023-11-18T03:19:58;100112.58;;;9.99;100.00
57412;BME280;43247;52.828;-8.980;2023-11-18T03:20:59;100110.14;;;9.99;100.00
57412;BME280;43247;52.828;-8.980;2023-11-18T03:21:59;100111.05;;;9.99;100.00
57412;BME280;43247;52.828;-8.980;2023-11-18T03:23:00;100112.48;;;9.99;100.00
57412;BME280;43247;52.828;-8.980;2023-11-18T03:23:59;100108.45;;;9.99;100.00
57412;BME280;43247;52.828;-8.980;2023-11-18T03:24:59;100107.97;;;10.00;100.00
57412;BME280;43247;52.828;-8.980;2023-11-18T03:26:00;100105.90;;;10.00;100.00
57412;BME280;43247;52.828;-8.980;2023-11-18T03:27:00;100100.43;;;9.99;100.00
57412;BME280;43247;52.828;-8.980;2023-11-18T03:28:00;100099.28;;;9.99;100.00
57412;BME280;43247;52.828;-8.980;2023-11-18T03:29:00;100102.97;;;10.00;100.00
57412;BME280;43247;52.828;-8.980;2023-11-18T03:30:00;100106.09;;;10.01;100.00
57412;BME280;43247;52.828;-8.980;2023-11-18T03:31:00;100107.67;;;10.00;100.00
57412;BME280;43247;52.828;-8.980;2023-11-18T03:32:00;100114.51;;;10.01;100.00
57412;BME280;43247;52.828;-8.980;2023-11-18T03:33:01;100119.43;;;10.03;100.00
57412;BME280;43247;52.828;-8.980;2023-11-18T03:34:01;100124.37;;;10.01;100.00
57412;BME280;43247;52.828;-8.980;2023-11-18T03:35:01;100119.65;;;10.02;100.00
57412;BME280;43247;52.828;-8.980;2023-11-18T03:36:01;100115.65;;;10.03;100.00
57412;BME280;43247;52.828;-8.980;2023-11-18T03:37:01;100114.54;;;10.03;100.00
57412;BME280;43247;52.828;-8.980;2023-11-18T03:38:01;100112.89;;;10.03;100.00
57412;BME280;43247;52.828;-8.980;2023-11-18T03:39:02;100108.92;;;10.03;100.00
57412;BME280;43247;52.828;-8.980;2023-11-18T03:40:04;100108.57;;;10.02;100.00
57412;BME280;43247;52.828;-8.980;2023-11-18T03:41:04;100108.43;;;10.03;100.00
57412;BME280;43247;52.828;-8.980;2023-11-18T03:42:04;100105.66;;;10.03;100.00
57412;BME280;43247;52.828;-8.980;2023-11-18T03:43:05;100106.34;;;10.05;100.00
57412;BME280;43247;52.828;-8.980;2023-11-18T03:44:05;100103.09;;;10.04;100.00
57412;BME280;43247;52.828;-8.980;2023-11-18T03:45:06;100100.67;;;10.04;100.00
57412;BME280;43247;52.828;-8.980;2023-11-18T03:46:05;100105.13;;;10.04;100.00
57412;BME280;43247;52.828;-8.980;2023-11-18T03:47:05;100101.18;;;10.05;100.00
57412;BME280;43247;52.828;-8.980;2023-11-18T03:48:06;100098.76;;;10.05;100.00
57412;BME280;43247;52.828;-8.980;2023-11-18T03:49:06;100098.62;;;10.06;100.00
57412;BME280;43247;52.828;-8.980;2023-11-18T03:50:06;100097.64;;;10.05;100.00
57412;BME280;43247;52.828;-8.980;2023-11-18T03:51:06;100095.31;;;10.07;100.00
57412;BME280;43247;52.828;-8.980;2023-11-18T03:52:06;100086.19;;;10.06;100.00
57412;BME280;43247;52.828;-8.980;2023-11-18T03:53:06;100084.55;;;10.07;100.00
57412;BME280;43247;52.828;-8.980;2023-11-18T03:54:06;100080.03;;;10.07;100.00
57412;BME280;43247;52.828;-8.980;2023-11-18T03:55:07;100078.28;;;10.07;100.00
57412;BME280;43247;52.828;-8.980;2023-11-18T03:56:08;100077.66;;;10.07;100.00
57412;BME280;43247;52.828;-8.980;2023-11-18T03:57:07;100076.56;;;10.06;100.00
57412;BME280;43247;52.828;-8.980;2023-11-18T03:58:07;100073.29;;;10.10;100.00
57412;BME280;43247;52.828;-8.980;2023-11-18T03:59:07;100067.90;;;10.13;100.00
57412;BME280;43247;52.828;-8.980;2023-11-18T04:00:08;100066.76;;;10.12;100.00
57412;BME280;43247;52.828;-8.980;2023-11-18T04:01:07;100063.04;;;10.11;100.00
57412;BME280;43247;52.828;-8.980;2023-11-18T04:02:08;100060.22;;;10.09;100.00
57412;BME280;43247;52.828;-8.980;2023-11-18T04:03:08;100057.62;;;10.06;100.00
57412;BME280;43247;52.828;-8.980;2023-11-18T04:04:08;100054.56;;;10.05;100.00
57412;BME280;43247;52.828;-8.980;2023-11-18T04:05:08;100053.12;;;10.04;100.00
57412;BME280;43247;52.828;-8.980;2023-11-18T04:06:08;100053.98;;;10.04;100.00
57412;BME280;43247;52.828;-8.980;2023-11-18T04:07:08;100053.72;;;10.03;100.00
57412;BME280;43247;52.828;-8.980;2023-11-18T04:08:09;100051.35;;;10.02;100.00
57412;BME280;43247;52.828;-8.980;2023-11-18T04:09:09;100052.04;;;9.99;100.00
57412;BME280;43247;52.828;-8.980;2023-11-18T04:10:09;100053.96;;;9.99;100.00
57412;BME280;43247;52.828;-8.980;2023-11-18T04:11:09;100054.20;;;9.99;100.00
57412;BME280;43247;52.828;-8.980;2023-11-18T04:12:10;100051.72;;;9.99;100.00
57412;BME280;43247;52.828;-8.980;2023-11-18T04:13:09;100050.57;;;9.99;100.00
57412;BME280;43247;52.828;-8.980;2023-11-18T04:14:10;100044.54;;;9.98;100.00
57412;BME280;43247;52.828;-8.980;2023-11-18T04:15:10;100042.91;;;9.98;100.00
57412;BME280;43247;52.828;-8.980;2023-11-18T04:16:10;100038.04;;;9.98;100.00
57412;BME280;43247;52.828;-8.980;2023-11-18T04:17:10;100035.26;;;9.98;100.00
57412;BME280;43247;52.828;-8.980;2023-11-18T04:18:10;100028.96;;;9.98;100.00
57412;BME280;43247;52.828;-8.980;2023-11-18T04:19:10;100032.54;;;9.97;100.00
57412;BME280;43247;52.828;-8.980;2023-11-18T04:20:11;100034.29;;;9.98;100.00
57412;BME280;43247;52.828;-8.980;2023-11-18T04:21:12;100030.48;;;9.98;100.00
57412;BME280;43247;52.828;-8.980;2023-11-18T04:22:11;100029.74;;;9.98;100.00
57412;BME280;43247;52.828;-8.980;2023-11-18T04:23:11;100030.53;;;9.99;100.00
57412;BME280;43247;52.828;-8.980;2023-11-18T04:24:11;100032.53;;;10.00;100.00
57412;BME280;43247;52.828;-8.980;2023-11-18T04:25:12;100034.88;;;9.99;100.00
57412;BME280;43247;52.828;-8.980;2023-11-18T04:26:12;100035.37;;;10.00;100.00
57412;BME280;43247;52.828;-8.980;2023-11-18T04:27:12;100035.82;;;10.01;100.00
57412;BME280;43247;52.828;-8.980;2023-11-18T04:28:12;100042.52;;;10.01;100.00
57412;BME280;43247;52.828;-8.980;2023-11-18T04:29:12;100043.83;;;9.99;100.00
57412;BME280;43247;52.828;-8.980;2023-11-18T04:30:13;100047.01;;;10.00;100.00
57412;BME280;43247;52.828;-8.980;2023-11-18T04:31:12;100052.35;;;10.00;100.00
57412;BME280;43247;52.828;-8.980;2023-11-18T04:32:12;100049.86;;;10.00;100.00
57412;BME280;43247;52.828;-8.980;2023-11-18T04:33:13;100048.74;;;10.00;100.00
57412;BME280;43247;52.828;-8.980;2023-11-18T04:34:13;100051.16;;;10.01;100.00
57412;BME280;43247;52.828;-8.980;2023-11-18T04:35:14;100050.23;;;10.01;100.00
57412;BME280;43247;52.828;-8.980;2023-11-18T04:36:14;100051.52;;;10.02;100.00
57412;BME280;43247;52.828;-8.980;2023-11-18T04:37:14;100052.19;;;10.01;100.00
57412;BME280;43247;52.828;-8.980;2023-11-18T04:38:14;100049.41;;;10.01;100.00
57412;BME280;43247;52.828;-8.980;2023-11-18T04:39:14;100050.56;;;10.03;100.00
57412;BME280;43247;52.828;-8.980;2023-11-18T04:40:15;100047.58;;;10.03;100.00
57412;BME280;43247;52.828;-8.980;2023-11-18T04:41:15;100045.76;;;10.02;100.00
57412;BME280;43247;52.828;-8.980;2023-11-18T04:42:15;100044.02;;;10.01;100.00
57412;BME280;43247;52.828;-8.980;2023-11-18T04:43:15;100052.59;;;10.02;100.00
57412;BME280;43247;52.828;-8.980;2023-11-18T04:44:15;100051.80;;;10.02;100.00
57412;BME280;43247;52.828;-8.980;2023-11-18T04:45:15;100049.45;;;10.02;100.00
57412;BME280;43247;52.828;-8.980;2023-11-18T04:46:15;100052.04;;;10.01;100.00
57412;BME280;43247;52.828;-8.980;2023-11-18T04:47:16;100045.37;;;10.02;100.00
57412;BME280;43247;52.828;-8.980;2023-11-18T04:48:16;100048.29;;;10.02;100.00
57412;BME280;43247;52.828;-8.980;2023-11-18T04:49:16;100047.22;;;10.00;100.00
57412;BME280;43247;52.828;-8.980;2023-11-18T04:50:16;100046.11;;;10.01;100.00
57412;BME280;43247;52.828;-8.980;2023-11-18T04:51:16;100050.13;;;10.00;100.00
57412;BME280;43247;52.828;-8.980;2023-11-18T04:52:16;100046.04;;;10.01;100.00
57412;BME280;43247;52.828;-8.980;2023-11-18T04:53:17;100046.01;;;10.01;100.00
57412;BME280;43247;52.828;-8.980;2023-11-18T04:54:17;100053.42;;;10.01;100.00
57412;BME280;43247;52.828;-8.980;2023-11-18T04:55:17;100053.55;;;10.00;100.00
57412;BME280;43247;52.828;-8.980;2023-11-18T04:56:18;100056.85;;;10.01;100.00
57412;BME280;43247;52.828;-8.980;2023-11-18T04:57:18;100053.85;;;10.00;100.00
57412;BME280;43247;52.828;-8.980;2023-11-18T04:58:18;100054.46;;;10.00;100.00
57412;BME280;43247;52.828;-8.980;2023-11-18T04:59:18;100053.29;;;10.00;100.00
57412;BME280;43247;52.828;-8.980;2023-11-18T05:00:18;100060.90;;;10.02;100.00
57412;BME280;43247;52.828;-8.980;2023-11-18T05:01:18;100065.17;;;10.02;100.00
57412;BME280;43247;52.828;-8.980;2023-11-18T05:02:19;100064.95;;;10.03;100.00
57412;BME280;43247;52.828;-8.980;2023-11-18T05:03:19;100061.92;;;10.03;100.00
57412;BME280;43247;52.828;-8.980;2023-11-18T05:04:19;100062.16;;;10.03;100.00
57412;BME280;43247;52.828;-8.980;2023-11-18T05:05:19;100057.07;;;10.04;100.00
57412;BME280;43247;52.828;-8.980;2023-11-18T05:06:19;100054.97;;;10.03;100.00
57412;BME280;43247;52.828;-8.980;2023-11-18T05:07:19;100057.17;;;10.04;100.00
57412;BME280;43247;52.828;-8.980;2023-11-18T05:08:20;100049.26;;;10.04;100.00
57412;BME280;43247;52.828;-8.980;2023-11-18T05:09:20;100047.93;;;10.04;100.00